sensor_id;sensor_type;location;lat;lon;timestamp;P1;durP1;ratioP1;P2;durP2;ratioP2
77158;SDS011;66129;45.890;13.714;2023-07-02T00:01:43;11.40;;;6.82;;
77158;SDS011;66129;45.890;13.714;2023-07-02T00:04:09;10.23;;;6.63;;
77158;SDS011;66129;45.890;13.714;2023-07-02T00:06:38;16.27;;;7.05;;
77158;SDS011;66129;45.890;13.714;2023-07-02T00:09:12;11.13;;;7.03;;
77158;SDS011;66129;45.890;13.714;2023-07-02T00:11:38;14.05;;;8.32;;
77158;SDS011;66129;45.890;13.714;2023-07-02T00:14:05;11.65;;;7.22;;
77158;SDS011;66129;45.890;13.714;2023-07-02T00:16:31;12.02;;;7.10;;
77158;SDS011;66129;45.890;13.714;2023-07-02T00:18:57;14.23;;;7.70;;
77158;SDS011;66129;45.890;13.714;2023-07-02T00:21:22;12.05;;;6.95;;
77158;SDS011;66129;45.890;13.714;2023-07-02T00:23:55;15.32;;;8.07;;
77158;SDS011;66129;45.890;13.714;2023-07-02T00:26:22;12.65;;;6.45;;
77158;SDS011;66129;45.890;13.714;2023-07-02T00:28:52;11.25;;;6.32;;
77158;SDS011;66129;45.890;13.714;2023-07-02T00:31:19;9.60;;;5.88;;
77158;SDS011;66129;45.890;13.714;2023-07-02T00:33:45;10.00;;;6.43;;
77158;SDS011;66129;45.890;13.714;2023-07-02T00:36:12;10.88;;;6.38;;
77158;SDS011;66129;45.890;13.714;2023-07-02T00:38:40;10.77;;;6.80;;
77158;SDS011;66129;45.890;13.714;2023-07-02T00:41:07;12.10;;;6.32;;
77158;SDS011;66129;45.890;13.714;2023-07-02T00:43:33;13.88;;;7.05;;
77158;SDS011;66129;45.890;13.714;2023-07-02T00:45:59;10.63;;;6.75;;
77158;SDS011;66129;45.890;13.714;2023-07-02T00:48:25;16.50;;;6.38;;
77158;SDS011;66129;45.890;13.714;2023-07-02T00:50:51;9.57;;;6.30;;
77158;SDS011;66129;45.890;13.714;2023-07-02T00:53:17;11.30;;;6.50;;
77158;SDS011;66129;45.890;13.714;2023-07-02T00:55:42;15.02;;;7.00;;
77158;SDS011;66129;45.890;13.714;2023-07-02T00:58:08;9.95;;;6.03;;
77158;SDS011;66129;45.890;13.714;2023-07-02T01:00:35;10.35;;;6.07;;
77158;SDS011;66129;45.890;13.714;2023-07-02T01:03:01;11.40;;;6.70;;
77158;SDS011;66129;45.890;13.714;2023-07-02T01:05:27;13.50;;;6.28;;
77158;SDS011;66129;45.890;13.714;2023-07-02T01:08:00;9.45;;;5.60;;
77158;SDS011;66129;45.890;13.714;2023-07-02T01:10:27;15.30;;;7.10;;
77158;SDS011;66129;45.890;13.714;2023-07-02T01:12:53;12.60;;;7.15;;
77158;SDS011;66129;45.890;13.714;2023-07-02T01:15:20;10.40;;;6.32;;
77158;SDS011;66129;45.890;13.714;2023-07-02T01:17:46;14.00;;;6.80;;
77158;SDS011;66129;45.890;13.714;2023-07-02T01:20:13;13.07;;;7.13;;
77158;SDS011;66129;45.890;13.714;2023-07-02T01:22:40;10.10;;;6.75;;
77158;SDS011;66129;45.890;13.714;2023-07-02T01:25:06;14.27;;;6.93;;
77158;SDS011;66129;45.890;13.714;2023-07-02T01:27:34;11.73;;;6.72;;
77158;SDS011;66129;45.890;13.714;2023-07-02T01:30:01;14.13;;;7.28;;
77158;SDS011;66129;45.890;13.714;2023-07-02T01:32:26;13.45;;;7.07;;
77158;SDS011;66129;45.890;13.714;2023-07-02T01:34:52;13.18;;;6.88;;
77158;SDS011;66129;45.890;13.714;2023-07-02T01:37:18;11.75;;;7.60;;
77158;SDS011;66129;45.890;13.714;2023-07-02T01:39:44;10.23;;;6.97;;
77158;SDS011;66129;45.890;13.714;2023-07-02T01:42:10;10.35;;;6.75;;
77158;SDS011;66129;45.890;13.714;2023-07-02T01:44:37;12.43;;;6.55;;
77158;SDS011;66129;45.890;13.714;2023-07-02T01:47:04;13.98;;;6.30;;
77158;SDS011;66129;45.890;13.714;2023-07-02T01:49:30;13.98;;;6.78;;
77158;SDS011;66129;45.890;13.714;2023-07-02T01:51:56;10.50;;;6.57;;
77158;SDS011;66129;45.890;13.714;2023-07-02T01:54:23;14.70;;;6.55;;
77158;SDS011;66129;45.890;13.714;2023-07-02T01:56:52;14.60;;;7.03;;
77158;SDS011;66129;45.890;13.714;2023-07-02T01:59:17;12.20;;;7.30;;
77158;SDS011;66129;45.890;13.714;2023-07-02T02:01:43;12.20;;;6.75;;
77158;SDS011;66129;45.890;13.714;2023-07-02T02:04:09;13.38;;;7.10;;
77158;SDS011;66129;45.890;13.714;2023-07-02T02:06:35;14.45;;;7.25;;
77158;SDS011;66129;45.890;13.714;2023-07-02T02:09:03;10.95;;;7.22;;
77158;SDS011;66129;45.890;13.714;2023-07-02T02:11:29;11.93;;;7.30;;
77158;SDS011;66129;45.890;13.714;2023-07-02T02:13:55;15.02;;;7.10;;
77158;SDS011;66129;45.890;13.714;2023-07-02T02:16:21;10.73;;;6.32;;
77158;SDS011;66129;45.890;13.714;2023-07-02T02:18:47;13.43;;;6.03;;
77158;SDS011;66129;45.890;13.714;2023-07-02T02:21:16;11.60;;;6.63;;
77158;SDS011;66129;45.890;13.714;2023-07-02T02:23:42;11.10;;;6.30;;
77158;SDS011;66129;45.890;13.714;2023-07-02T02:26:08;12.40;;;6.75;;
77158;SDS011;66129;45.890;13.714;2023-07-02T02:28:33;12.27;;;7.40;;
77158;SDS011;66129;45.890;13.714;2023-07-02T02:30:58;11.07;;;7.05;;
77158;SDS011;66129;45.890;13.714;2023-07-02T02:33:24;10.02;;;6.70;;
77158;SDS011;66129;45.890;13.714;2023-07-02T02:35:50;10.27;;;6.28;;
77158;SDS011;66129;45.890;13.714;2023-07-02T02:38:15;11.40;;;6.63;;
77158;SDS011;66129;45.890;13.714;2023-07-02T02:40:41;11.88;;;7.10;;
77158;SDS011;66129;45.890;13.714;2023-07-02T02:43:07;11.60;;;6.35;;
77158;SDS011;66129;45.890;13.714;2023-07-02T02:45:32;11.65;;;6.35;;
77158;SDS011;66129;45.890;13.714;2023-07-02T02:47:58;12.70;;;6.93;;
77158;SDS011;66129;45.890;13.714;2023-07-02T02:50:23;10.50;;;6.20;;
77158;SDS011;66129;45.890;13.714;2023-07-02T02:52:49;16.05;;;7.15;;
77158;SDS011;66129;45.890;13.714;2023-07-02T02:55:14;13.15;;;6.75;;
77158;SDS011;66129;45.890;13.714;2023-07-02T02:57:40;10.00;;;6.45;;
77158;SDS011;66129;45.890;13.714;2023-07-02T03:00:05;10.70;;;6.78;;
77158;SDS011;66129;45.890;13.714;2023-07-02T03:02:32;10.52;;;6.82;;
77158;SDS011;66129;45.890;13.714;2023-07-02T03:04:57;13.30;;;7.13;;
77158;SDS011;66129;45.890;13.714;2023-07-02T03:07:27;10.18;;;5.70;;
77158;SDS011;66129;45.890;13.714;2023-07-02T03:09:53;10.25;;;7.40;;
77158;SDS011;66129;45.890;13.714;2023-07-02T03:12:19;10.43;;;6.00;;
77158;SDS011;66129;45.890;13.714;2023-07-02T03:14:44;8.93;;;5.95;;
77158;SDS011;66129;45.890;13.714;2023-07-02T03:17:12;7.85;;;5.85;;
77158;SDS011;66129;45.890;13.714;2023-07-02T03:19:38;8.77;;;5.93;;
77158;SDS011;66129;45.890;13.714;2023-07-02T03:22:03;11.20;;;6.78;;
77158;SDS011;66129;45.890;13.714;2023-07-02T03:24:29;9.48;;;5.88;;
77158;SDS011;66129;45.890;13.714;2023-07-02T03:26:55;12.38;;;5.78;;
77158;SDS011;66129;45.890;13.714;2023-07-02T03:29:20;9.60;;;6.03;;
77158;SDS011;66129;45.890;13.714;2023-07-02T03:31:46;9.13;;;6.50;;
77158;SDS011;66129;45.890;13.714;2023-07-02T03:34:12;8.80;;;5.85;;
77158;SDS011;66129;45.890;13.714;2023-07-02T03:36:38;15.82;;;6.70;;
77158;SDS011;66129;45.890;13.714;2023-07-02T03:39:03;10.10;;;6.45;;
77158;SDS011;66129;45.890;13.714;2023-07-02T03:41:30;10.88;;;6.22;;
77158;SDS011;66129;45.890;13.714;2023-07-02T03:43:55;10.63;;;6.40;;
77158;SDS011;66129;45.890;13.714;2023-07-02T03:46:21;9.65;;;6.63;;
77158;SDS011;66129;45.890;13.714;2023-07-02T03:48:46;10.38;;;6.60;;
77158;SDS011;66129;45.890;13.714;2023-07-02T03:51:12;11.48;;;6.88;;
77158;SDS011;66129;45.890;13.714;2023-07-02T03:53:39;14.30;;;6.40;;
77158;SDS011;66129;45.890;13.714;2023-07-02T03:56:05;13.27;;;6.80;;
77158;SDS011;66129;45.890;13.714;2023-07-02T03:58:31;10.10;;;6.55;;
77158;SDS011;66129;45.890;13.714;2023-07-02T04:00:56;11.65;;;6.68;;
77158;SDS011;66129;45.890;13.714;2023-07-02T04:03:22;10.48;;;6.80;;
77158;SDS011;66129;45.890;13.714;2023-07-02T04:05:47;10.73;;;6.25;;
77158;SDS011;66129;45.890;13.714;2023-07-02T04:08:13;11.13;;;7.18;;
77158;SDS011;66129;45.890;13.714;2023-07-02T04:10:39;9.95;;;6.50;;
77158;SDS011;66129;45.890;13.714;2023-07-02T04:13:05;10.27;;;5.78;;
77158;SDS011;66129;45.890;13.714;2023-07-02T04:15:30;9.18;;;5.70;;
77158;SDS011;66129;45.890;13.714;2023-07-02T04:17:57;7.95;;;5.47;;
77158;SDS011;66129;45.890;13.714;2023-07-02T04:20:22;9.88;;;5.90;;
77158;SDS011;66129;45.890;13.714;2023-07-02T04:22:48;10.05;;;5.30;;
77158;SDS011;66129;45.890;13.714;2023-07-02T04:25:15;11.88;;;6.13;;
77158;SDS011;66129;45.890;13.714;2023-07-02T04:27:41;9.25;;;5.63;;
77158;SDS011;66129;45.890;13.714;2023-07-02T04:30:07;7.30;;;4.88;;
77158;SDS011;66129;45.890;13.714;2023-07-02T04:32:34;9.50;;;5.45;;
77158;SDS011;66129;45.890;13.714;2023-07-02T04:35:00;9.88;;;5.43;;
77158;SDS011;66129;45.890;13.714;2023-07-02T04:37:26;9.73;;;5.13;;
77158;SDS011;66129;45.890;13.714;2023-07-02T04:39:53;10.73;;;4.82;;
77158;SDS011;66129;45.890;13.714;2023-07-02T04:42:19;9.27;;;6.43;;
77158;SDS011;66129;45.890;13.714;2023-07-02T04:44:44;7.25;;;5.15;;
77158;SDS011;66129;45.890;13.714;2023-07-02T04:47:10;8.77;;;5.32;;
77158;SDS011;66129;45.890;13.714;2023-07-02T04:49:36;11.55;;;5.82;;
77158;SDS011;66129;45.890;13.714;2023-07-02T04:52:02;7.40;;;5.07;;
77158;SDS011;66129;45.890;13.714;2023-07-02T04:54:27;8.13;;;4.93;;
77158;SDS011;66129;45.890;13.714;2023-07-02T04:56:53;6.82;;;4.90;;
77158;SDS011;66129;45.890;13.714;2023-07-02T04:59:20;6.80;;;4.78;;
77158;SDS011;66129;45.890;13.714;2023-07-02T05:01:46;8.65;;;5.95;;
77158;SDS011;66129;45.890;13.714;2023-07-02T05:04:11;7.65;;;5.10;;
77158;SDS011;66129;45.890;13.714;2023-07-02T05:06:37;8.98;;;5.93;;
77158;SDS011;66129;45.890;13.714;2023-07-02T05:09:03;9.98;;;5.50;;
77158;SDS011;66129;45.890;13.714;2023-07-02T05:11:29;9.60;;;5.18;;
77158;SDS011;66129;45.890;13.714;2023-07-02T05:13:54;10.02;;;5.68;;
77158;SDS011;66129;45.890;13.714;2023-07-02T05:16:20;8.20;;;5.28;;
77158;SDS011;66129;45.890;13.714;2023-07-02T05:18:45;8.02;;;5.13;;
77158;SDS011;66129;45.890;13.714;2023-07-02T05:21:11;12.07;;;6.15;;
77158;SDS011;66129;45.890;13.714;2023-07-02T05:23:36;11.10;;;6.53;;
77158;SDS011;66129;45.890;13.714;2023-07-02T05:26:02;8.88;;;6.18;;
77158;SDS011;66129;45.890;13.714;2023-07-02T05:28:28;10.43;;;6.00;;
77158;SDS011;66129;45.890;13.714;2023-07-02T05:30:54;8.93;;;6.03;;
77158;SDS011;66129;45.890;13.714;2023-07-02T05:33:19;10.73;;;7.10;;
77158;SDS011;66129;45.890;13.714;2023-07-02T05:35:47;9.85;;;7.07;;
77158;SDS011;66129;45.890;13.714;2023-07-02T05:38:13;11.98;;;6.45;;
77158;SDS011;66129;45.890;13.714;2023-07-02T05:40:38;9.07;;;6.22;;
77158;SDS011;66129;45.890;13.714;2023-07-02T05:43:04;9.75;;;6.13;;
77158;SDS011;66129;45.890;13.714;2023-07-02T05:45:29;9.90;;;5.80;;
77158;SDS011;66129;45.890;13.714;2023-07-02T05:47:55;9.18;;;6.40;;
77158;SDS011;66129;45.890;13.714;2023-07-02T05:50:21;10.85;;;6.07;;
77158;SDS011;66129;45.890;13.714;2023-07-02T05:52:46;8.05;;;5.65;;
77158;SDS011;66129;45.890;13.714;2023-07-02T05:55:12;7.53;;;5.35;;
77158;SDS011;66129;45.890;13.714;2023-07-02T05:57:37;8.57;;;5.85;;
77158;SDS011;66129;45.890;13.714;2023-07-02T06:00:04;9.82;;;6.10;;
77158;SDS011;66129;45.890;13.714;2023-07-02T06:02:31;7.43;;;5.00;;
77158;SDS011;66129;45.890;13.714;2023-07-02T06:04:56;8.73;;;6.10;;
77158;SDS011;66129;45.890;13.714;2023-07-02T06:07:22;6.55;;;5.07;;
77158;SDS011;66129;45.890;13.714;2023-07-02T06:09:49;7.35;;;5.25;;
77158;SDS011;66129;45.890;13.714;2023-07-02T06:12:14;7.85;;;5.28;;
77158;SDS011;66129;45.890;13.714;2023-07-02T06:14:40;9.15;;;5.55;;
77158;SDS011;66129;45.890;13.714;2023-07-02T06:17:07;9.40;;;5.47;;
77158;SDS011;66129;45.890;13.714;2023-07-02T06:19:33;8.40;;;5.50;;
77158;SDS011;66129;45.890;13.714;2023-07-02T06:21:58;8.23;;;5.00;;
77158;SDS011;66129;45.890;13.714;2023-07-02T06:24:24;8.10;;;5.18;;
77158;SDS011;66129;45.890;13.714;2023-07-02T06:26:50;11.43;;;5.68;;
77158;SDS011;66129;45.890;13.714;2023-07-02T06:29:15;7.05;;;5.07;;
77158;SDS011;66129;45.890;13.714;2023-07-02T06:31:41;8.90;;;4.90;;
77158;SDS011;66129;45.890;13.714;2023-07-02T06:34:06;6.95;;;5.10;;
77158;SDS011;66129;45.890;13.714;2023-07-02T06:36:34;6.95;;;4.72;;
77158;SDS011;66129;45.890;13.714;2023-07-02T06:39:01;6.68;;;4.57;;
77158;SDS011;66129;45.890;13.714;2023-07-02T06:41:26;6.50;;;4.80;;
77158;SDS011;66129;45.890;13.714;2023-07-02T06:43:52;7.30;;;4.90;;
77158;SDS011;66129;45.890;13.714;2023-07-02T06:46:17;8.05;;;4.97;;
77158;SDS011;66129;45.890;13.714;2023-07-02T06:48:46;8.77;;;5.75;;
77158;SDS011;66129;45.890;13.714;2023-07-02T06:51:14;8.60;;;4.85;;
77158;SDS011;66129;45.890;13.714;2023-07-02T06:53:40;6.45;;;4.93;;
77158;SDS011;66129;45.890;13.714;2023-07-02T06:56:07;7.47;;;5.18;;
77158;SDS011;66129;45.890;13.714;2023-07-02T06:58:34;7.82;;;5.20;;
77158;SDS011;66129;45.890;13.714;2023-07-02T07:01:00;7.15;;;4.88;;
77158;SDS011;66129;45.890;13.714;2023-07-02T07:03:25;7.55;;;5.15;;
77158;SDS011;66129;45.890;13.714;2023-07-02T07:05:51;9.68;;;5.07;;
77158;SDS011;66129;45.890;13.714;2023-07-02T07:08:16;7.80;;;5.68;;
77158;SDS011;66129;45.890;13.714;2023-07-02T07:10:42;10.60;;;5.70;;
77158;SDS011;66129;45.890;13.714;2023-07-02T07:13:09;7.40;;;5.05;;
77158;SDS011;66129;45.890;13.714;2023-07-02T07:15:35;7.10;;;4.60;;
77158;SDS011;66129;45.890;13.714;2023-07-02T07:18:01;9.25;;;5.47;;
77158;SDS011;66129;45.890;13.714;2023-07-02T07:20:26;7.93;;;5.60;;
77158;SDS011;66129;45.890;13.714;2023-07-02T07:22:52;7.03;;;5.35;;
77158;SDS011;66129;45.890;13.714;2023-07-02T07:25:17;7.30;;;5.68;;
77158;SDS011;66129;45.890;13.714;2023-07-02T07:27:43;8.20;;;4.93;;
77158;SDS011;66129;45.890;13.714;2023-07-02T07:30:09;7.95;;;4.85;;
77158;SDS011;66129;45.890;13.714;2023-07-02T07:32:34;19.52;;;5.72;;
77158;SDS011;66129;45.890;13.714;2023-07-02T07:35:00;11.35;;;5.53;;
77158;SDS011;66129;45.890;13.714;2023-07-02T07:37:25;7.75;;;5.50;;
77158;SDS011;66129;45.890;13.714;2023-07-02T07:39:51;6.50;;;4.55;;
77158;SDS011;66129;45.890;13.714;2023-07-02T07:42:18;9.40;;;5.43;;
77158;SDS011;66129;45.890;13.714;2023-07-02T07:44:47;6.97;;;5.32;;
77158;SDS011;66129;45.890;13.714;2023-07-02T07:47:15;7.35;;;5.38;;
77158;SDS011;66129;45.890;13.714;2023-07-02T07:49:41;6.28;;;4.28;;
77158;SDS011;66129;45.890;13.714;2023-07-02T07:52:07;8.77;;;5.57;;
77158;SDS011;66129;45.890;13.714;2023-07-02T07:54:33;8.75;;;5.30;;
77158;SDS011;66129;45.890;13.714;2023-07-02T07:57:03;6.45;;;5.13;;
77158;SDS011;66129;45.890;13.714;2023-07-02T07:59:29;10.45;;;5.28;;
77158;SDS011;66129;45.890;13.714;2023-07-02T08:01:54;6.82;;;4.75;;
77158;SDS011;66129;45.890;13.714;2023-07-02T08:04:20;7.63;;;5.88;;
77158;SDS011;66129;45.890;13.714;2023-07-02T08:06:45;7.28;;;4.90;;
77158;SDS011;66129;45.890;13.714;2023-07-02T08:09:11;7.35;;;5.60;;
77158;SDS011;66129;45.890;13.714;2023-07-02T08:11:36;8.60;;;5.00;;
77158;SDS011;66129;45.890;13.714;2023-07-02T08:14:03;9.18;;;5.13;;
77158;SDS011;66129;45.890;13.714;2023-07-02T08:16:29;8.70;;;5.28;;
77158;SDS011;66129;45.890;13.714;2023-07-02T08:18:54;7.75;;;5.00;;
77158;SDS011;66129;45.890;13.714;2023-07-02T08:21:20;7.35;;;5.47;;
77158;SDS011;66129;45.890;13.714;2023-07-02T08:23:45;5.68;;;5.03;;
77158;SDS011;66129;45.890;13.714;2023-07-02T08:26:11;7.28;;;5.18;;
77158;SDS011;66129;45.890;13.714;2023-07-02T08:28:36;8.38;;;5.57;;
77158;SDS011;66129;45.890;13.714;2023-07-02T08:31:03;8.88;;;5.70;;
77158;SDS011;66129;45.890;13.714;2023-07-02T08:33:29;7.95;;;5.30;;
77158;SDS011;66129;45.890;13.714;2023-07-02T08:35:55;9.45;;;5.07;;
77158;SDS011;66129;45.890;13.714;2023-07-02T08:38:21;8.13;;;5.22;;
77158;SDS011;66129;45.890;13.714;2023-07-02T08:40:46;8.65;;;5.53;;
77158;SDS011;66129;45.890;13.714;2023-07-02T08:43:13;7.25;;;5.65;;
77158;SDS011;66129;45.890;13.714;2023-07-02T08:45:40;7.68;;;5.57;;
77158;SDS011;66129;45.890;13.714;2023-07-02T08:48:07;8.60;;;6.13;;
77158;SDS011;66129;45.890;13.714;2023-07-02T08:50:33;7.55;;;5.35;;
77158;SDS011;66129;45.890;13.714;2023-07-02T08:52:58;8.05;;;5.82;;
77158;SDS011;66129;45.890;13.714;2023-07-02T08:55:24;7.72;;;5.53;;
77158;SDS011;66129;45.890;13.714;2023-07-02T08:57:52;7.93;;;5.32;;
77158;SDS011;66129;45.890;13.714;2023-07-02T09:00:19;9.60;;;5.68;;
77158;SDS011;66129;45.890;13.714;2023-07-02T09:02:45;7.15;;;5.38;;
77158;SDS011;66129;45.890;13.714;2023-07-02T09:05:11;8.75;;;5.35;;
77158;SDS011;66129;45.890;13.714;2023-07-02T09:07:44;6.97;;;5.25;;
77158;SDS011;66129;45.890;13.714;2023-07-02T09:10:10;9.57;;;6.25;;
77158;SDS011;66129;45.890;13.714;2023-07-02T09:12:36;8.18;;;5.78;;
77158;SDS011;66129;45.890;13.714;2023-07-02T09:15:04;8.70;;;6.28;;
77158;SDS011;66129;45.890;13.714;2023-07-02T09:17:32;9.23;;;5.75;;
77158;SDS011;66129;45.890;13.714;2023-07-02T09:19:59;8.63;;;5.30;;
77158;SDS011;66129;45.890;13.714;2023-07-02T09:22:26;7.85;;;5.63;;
77158;SDS011;66129;45.890;13.714;2023-07-02T09:24:55;8.93;;;4.95;;
77158;SDS011;66129;45.890;13.714;2023-07-02T09:27:34;8.63;;;5.60;;
77158;SDS011;66129;45.890;13.714;2023-07-02T09:30:11;7.07;;;5.15;;
77158;SDS011;66129;45.890;13.714;2023-07-02T09:32:40;7.38;;;5.28;;
77158;SDS011;66129;45.890;13.714;2023-07-02T09:35:06;8.52;;;5.32;;
77158;SDS011;66129;45.890;13.714;2023-07-02T09:37:32;8.07;;;5.60;;
77158;SDS011;66129;45.890;13.714;2023-07-02T09:39:58;9.15;;;6.00;;
77158;SDS011;66129;45.890;13.714;2023-07-02T09:42:25;7.72;;;5.78;;
77158;SDS011;66129;45.890;13.714;2023-07-02T09:44:54;8.05;;;6.07;;
77158;SDS011;66129;45.890;13.714;2023-07-02T09:47:21;7.72;;;5.38;;
77158;SDS011;66129;45.890;13.714;2023-07-02T09:52:23;8.93;;;5.57;;
77158;SDS011;66129;45.890;13.714;2023-07-02T09:54:48;8.73;;;5.55;;
77158;SDS011;66129;45.890;13.714;2023-07-02T09:57:14;7.05;;;4.95;;
77158;SDS011;66129;45.890;13.714;2023-07-02T09:59:40;7.00;;;4.45;;
77158;SDS011;66129;45.890;13.714;2023-07-02T10:02:05;8.60;;;5.55;;
77158;SDS011;66129;45.890;13.714;2023-07-02T10:04:40;7.40;;;5.22;;
77158;SDS011;66129;45.890;13.714;2023-07-02T10:07:07;9.23;;;4.60;;
77158;SDS011;66129;45.890;13.714;2023-07-02T10:09:43;6.65;;;4.05;;
77158;SDS011;66129;45.890;13.714;2023-07-02T10:12:19;6.78;;;4.95;;
77158;SDS011;66129;45.890;13.714;2023-07-02T10:14:47;7.78;;;5.40;;
77158;SDS011;66129;45.890;13.714;2023-07-02T10:19:52;6.88;;;4.43;;
77158;SDS011;66129;45.890;13.714;2023-07-02T10:22:19;9.13;;;4.20;;
77158;SDS011;66129;45.890;13.714;2023-07-02T10:24:51;6.32;;;4.05;;
77158;SDS011;66129;45.890;13.714;2023-07-02T10:27:18;6.53;;;4.30;;
77158;SDS011;66129;45.890;13.714;2023-07-02T10:29:49;6.32;;;4.22;;
77158;SDS011;66129;45.890;13.714;2023-07-02T10:32:25;5.15;;;3.88;;
77158;SDS011;66129;45.890;13.714;2023-07-02T10:37:18;5.63;;;3.67;;
77158;SDS011;66129;45.890;13.714;2023-07-02T10:39:43;6.97;;;4.30;;
77158;SDS011;66129;45.890;13.714;2023-07-02T10:42:09;4.93;;;3.90;;
77158;SDS011;66129;45.890;13.714;2023-07-02T10:44:46;7.90;;;4.35;;
77158;SDS011;66129;45.890;13.714;2023-07-02T10:47:16;6.95;;;4.30;;
77158;SDS011;66129;45.890;13.714;2023-07-02T10:49:42;5.97;;;4.20;;
77158;SDS011;66129;45.890;13.714;2023-07-02T10:52:07;6.13;;;3.95;;
77158;SDS011;66129;45.890;13.714;2023-07-02T10:55:05;6.03;;;4.18;;
77158;SDS011;66129;45.890;13.714;2023-07-02T10:57:24;5.90;;;3.92;;
77158;SDS011;66129;45.890;13.714;2023-07-02T10:59:49;7.00;;;4.65;;
77158;SDS011;66129;45.890;13.714;2023-07-02T11:02:15;7.07;;;4.50;;
77158;SDS011;66129;45.890;13.714;2023-07-02T11:04:42;13.43;;;5.15;;
77158;SDS011;66129;45.890;13.714;2023-07-02T11:07:09;6.20;;;4.25;;
77158;SDS011;66129;45.890;13.714;2023-07-02T11:09:35;7.40;;;4.68;;
77158;SDS011;66129;45.890;13.714;2023-07-02T11:12:00;6.53;;;4.93;;
77158;SDS011;66129;45.890;13.714;2023-07-02T11:14:33;7.45;;;5.10;;
77158;SDS011;66129;45.890;13.714;2023-07-02T11:17:03;9.57;;;5.20;;
77158;SDS011;66129;45.890;13.714;2023-07-02T11:19:31;7.90;;;5.05;;
77158;SDS011;66129;45.890;13.714;2023-07-02T11:21:57;7.15;;;3.85;;
77158;SDS011;66129;45.890;13.714;2023-07-02T11:24:27;10.45;;;4.60;;
77158;SDS011;66129;45.890;13.714;2023-07-02T11:26:54;6.18;;;4.20;;
77158;SDS011;66129;45.890;13.714;2023-07-02T11:29:19;6.88;;;4.38;;
77158;SDS011;66129;45.890;13.714;2023-07-02T11:31:45;6.88;;;4.55;;
77158;SDS011;66129;45.890;13.714;2023-07-02T11:34:11;7.07;;;4.47;;
77158;SDS011;66129;45.890;13.714;2023-07-02T11:36:37;6.28;;;4.45;;
77158;SDS011;66129;45.890;13.714;2023-07-02T11:39:03;7.68;;;4.97;;
77158;SDS011;66129;45.890;13.714;2023-07-02T11:41:39;7.18;;;4.47;;
77158;SDS011;66129;45.890;13.714;2023-07-02T11:44:05;5.78;;;4.45;;
77158;SDS011;66129;45.890;13.714;2023-07-02T11:46:31;7.60;;;4.80;;
77158;SDS011;66129;45.890;13.714;2023-07-02T11:48:57;6.75;;;3.60;;
77158;SDS011;66129;45.890;13.714;2023-07-02T11:51:24;7.10;;;4.13;;
77158;SDS011;66129;45.890;13.714;2023-07-02T11:53:50;8.18;;;4.88;;
77158;SDS011;66129;45.890;13.714;2023-07-02T11:56:15;8.73;;;3.35;;
77158;SDS011;66129;45.890;13.714;2023-07-02T11:58:41;8.00;;;4.13;;
77158;SDS011;66129;45.890;13.714;2023-07-02T12:01:08;5.80;;;3.88;;
77158;SDS011;66129;45.890;13.714;2023-07-02T12:03:33;6.63;;;3.50;;
77158;SDS011;66129;45.890;13.714;2023-07-02T12:05:59;5.95;;;3.80;;
77158;SDS011;66129;45.890;13.714;2023-07-02T12:08:24;7.00;;;3.90;;
77158;SDS011;66129;45.890;13.714;2023-07-02T12:10:50;9.95;;;4.10;;
77158;SDS011;66129;45.890;13.714;2023-07-02T12:13:16;4.80;;;3.20;;
77158;SDS011;66129;45.890;13.714;2023-07-02T12:15:41;5.05;;;3.33;;
77158;SDS011;66129;45.890;13.714;2023-07-02T12:18:07;4.72;;;3.78;;
77158;SDS011;66129;45.890;13.714;2023-07-02T12:20:34;6.95;;;4.47;;
77158;SDS011;66129;45.890;13.714;2023-07-02T12:22:59;5.47;;;3.42;;
77158;SDS011;66129;45.890;13.714;2023-07-02T12:25:25;5.40;;;3.45;;
77158;SDS011;66129;45.890;13.714;2023-07-02T12:27:51;5.63;;;4.03;;
77158;SDS011;66129;45.890;13.714;2023-07-02T12:30:16;6.70;;;3.75;;
77158;SDS011;66129;45.890;13.714;2023-07-02T12:32:43;4.90;;;3.17;;
77158;SDS011;66129;45.890;13.714;2023-07-02T12:35:09;6.82;;;3.95;;
77158;SDS011;66129;45.890;13.714;2023-07-02T12:37:35;15.57;;;5.65;;
77158;SDS011;66129;45.890;13.714;2023-07-02T12:40:00;7.40;;;4.15;;
77158;SDS011;66129;45.890;13.714;2023-07-02T12:42:26;5.18;;;3.38;;
77158;SDS011;66129;45.890;13.714;2023-07-02T12:44:52;5.65;;;3.63;;
77158;SDS011;66129;45.890;13.714;2023-07-02T12:47:17;7.80;;;3.70;;
77158;SDS011;66129;45.890;13.714;2023-07-02T12:49:43;10.05;;;4.05;;
77158;SDS011;66129;45.890;13.714;2023-07-02T12:52:08;8.15;;;4.13;;
77158;SDS011;66129;45.890;13.714;2023-07-02T12:54:34;5.93;;;3.38;;
77158;SDS011;66129;45.890;13.714;2023-07-02T12:56:59;7.07;;;3.60;;
77158;SDS011;66129;45.890;13.714;2023-07-02T12:59:25;6.05;;;3.80;;
77158;SDS011;66129;45.890;13.714;2023-07-02T13:01:50;5.30;;;3.70;;
77158;SDS011;66129;45.890;13.714;2023-07-02T13:04:15;6.05;;;3.72;;
77158;SDS011;66129;45.890;13.714;2023-07-02T13:06:41;5.00;;;3.20;;
77158;SDS011;66129;45.890;13.714;2023-07-02T13:09:07;8.98;;;3.92;;
77158;SDS011;66129;45.890;13.714;2023-07-02T13:11:33;9.30;;;4.22;;
77158;SDS011;66129;45.890;13.714;2023-07-02T13:13:58;6.50;;;4.47;;
77158;SDS011;66129;45.890;13.714;2023-07-02T13:16:24;6.45;;;3.53;;
77158;SDS011;66129;45.890;13.714;2023-07-02T13:18:49;9.82;;;4.53;;
77158;SDS011;66129;45.890;13.714;2023-07-02T13:21:15;9.65;;;4.40;;
77158;SDS011;66129;45.890;13.714;2023-07-02T13:23:41;8.65;;;4.53;;
77158;SDS011;66129;45.890;13.714;2023-07-02T13:26:07;6.50;;;4.45;;
77158;SDS011;66129;45.890;13.714;2023-07-02T13:28:32;5.60;;;3.88;;
77158;SDS011;66129;45.890;13.714;2023-07-02T13:30:57;5.18;;;3.90;;
77158;SDS011;66129;45.890;13.714;2023-07-02T13:33:23;9.70;;;3.88;;
77158;SDS011;66129;45.890;13.714;2023-07-02T13:35:48;7.03;;;3.33;;
77158;SDS011;66129;45.890;13.714;2023-07-02T13:38:14;8.20;;;4.28;;
77158;SDS011;66129;45.890;13.714;2023-07-02T13:40:39;5.38;;;3.72;;
77158;SDS011;66129;45.890;13.714;2023-07-02T13:43:05;5.60;;;3.58;;
77158;SDS011;66129;45.890;13.714;2023-07-02T13:45:30;4.97;;;3.55;;
77158;SDS011;66129;45.890;13.714;2023-07-02T13:47:56;4.28;;;3.13;;
77158;SDS011;66129;45.890;13.714;2023-07-02T13:50:22;4.82;;;3.20;;
77158;SDS011;66129;45.890;13.714;2023-07-02T13:52:48;5.57;;;2.83;;
77158;SDS011;66129;45.890;13.714;2023-07-02T13:55:14;4.32;;;2.90;;
77158;SDS011;66129;45.890;13.714;2023-07-02T13:57:40;4.78;;;2.80;;
77158;SDS011;66129;45.890;13.714;2023-07-02T14:00:06;4.55;;;3.75;;
77158;SDS011;66129;45.890;13.714;2023-07-02T14:02:32;4.95;;;3.22;;
77158;SDS011;66129;45.890;13.714;2023-07-02T14:04:58;5.05;;;3.05;;
77158;SDS011;66129;45.890;13.714;2023-07-02T14:07:24;4.40;;;3.17;;
77158;SDS011;66129;45.890;13.714;2023-07-02T14:09:50;3.72;;;2.72;;
77158;SDS011;66129;45.890;13.714;2023-07-02T14:12:15;5.50;;;3.03;;
77158;SDS011;66129;45.890;13.714;2023-07-02T14:14:41;3.75;;;2.38;;
77158;SDS011;66129;45.890;13.714;2023-07-02T14:17:06;4.82;;;3.08;;
77158;SDS011;66129;45.890;13.714;2023-07-02T14:19:32;4.80;;;2.97;;
77158;SDS011;66129;45.890;13.714;2023-07-02T14:21:58;3.60;;;2.60;;
77158;SDS011;66129;45.890;13.714;2023-07-02T14:24:24;4.32;;;3.10;;
77158;SDS011;66129;45.890;13.714;2023-07-02T14:26:51;4.53;;;3.20;;
77158;SDS011;66129;45.890;13.714;2023-07-02T14:29:17;3.80;;;2.75;;
77158;SDS011;66129;45.890;13.714;2023-07-02T14:31:43;7.50;;;3.35;;
77158;SDS011;66129;45.890;13.714;2023-07-02T14:34:08;4.57;;;2.83;;